sensor_id;sensor_type;location;lat;lon;timestamp;P1;durP1;ratioP1;P2;durP2;ratioP2
8594;SDS011;4335;48.860;9.198;2022-12-07T00:01:37;7.70;;;6.83;;
8594;SDS011;4335;48.860;9.198;2022-12-07T00:04:06;7.63;;;6.77;;
8594;SDS011;4335;48.860;9.198;2022-12-07T00:06:37;11.97;;;7.17;;
8594;SDS011;4335;48.860;9.198;2022-12-07T00:09:06;7.80;;;6.60;;
8594;SDS011;4335;48.860;9.198;2022-12-07T00:11:39;8.17;;;6.43;;
8594;SDS011;4335;48.860;9.198;2022-12-07T00:14:10;10.87;;;7.87;;
8594;SDS011;4335;48.860;9.198;2022-12-07T00:16:41;10.83;;;7.80;;
8594;SDS011;4335;48.860;9.198;2022-12-07T00:19:09;9.30;;;7.23;;
8594;SDS011;4335;48.860;9.198;2022-12-07T00:21:37;8.60;;;7.20;;
8594;SDS011;4335;48.860;9.198;2022-12-07T00:24:05;13.73;;;7.20;;
8594;SDS011;4335;48.860;9.198;2022-12-07T00:26:36;8.23;;;7.13;;
8594;SDS011;4335;48.860;9.198;2022-12-07T00:29:09;8.00;;;6.57;;
8594;SDS011;4335;48.860;9.198;2022-12-07T00:31:42;9.33;;;7.60;;
8594;SDS011;4335;48.860;9.198;2022-12-07T00:34:13;7.73;;;6.87;;
8594;SDS011;4335;48.860;9.198;2022-12-07T00:36:42;7.50;;;6.43;;
8594;SDS011;4335;48.860;9.198;2022-12-07T00:39:09;7.23;;;6.53;;
8594;SDS011;4335;48.860;9.198;2022-12-07T00:41:37;9.60;;;7.40;;
8594;SDS011;4335;48.860;9.198;2022-12-07T00:44:07;9.13;;;6.60;;
8594;SDS011;4335;48.860;9.198;2022-12-07T00:46:38;8.67;;;6.50;;
8594;SDS011;4335;48.860;9.198;2022-12-07T00:49:07;9.30;;;6.87;;
8594;SDS011;4335;48.860;9.198;2022-12-07T00:51:34;10.33;;;7.57;;
8594;SDS011;4335;48.860;9.198;2022-12-07T00:54:01;7.67;;;6.63;;
8594;SDS011;4335;48.860;9.198;2022-12-07T00:56:29;8.17;;;6.80;;
8594;SDS011;4335;48.860;9.198;2022-12-07T00:58:58;6.73;;;5.97;;
8594;SDS011;4335;48.860;9.198;2022-12-07T01:01:30;8.50;;;6.90;;
8594;SDS011;4335;48.860;9.198;2022-12-07T01:03:59;10.00;;;7.00;;
8594;SDS011;4335;48.860;9.198;2022-12-07T01:06:29;9.40;;;6.73;;
8594;SDS011;4335;48.860;9.198;2022-12-07T01:08:57;9.60;;;7.60;;
8594;SDS011;4335;48.860;9.198;2022-12-07T01:11:27;8.67;;;7.10;;
8594;SDS011;4335;48.860;9.198;2022-12-07T01:13:58;8.10;;;7.17;;
8594;SDS011;4335;48.860;9.198;2022-12-07T01:16:29;8.03;;;7.23;;
8594;SDS011;4335;48.860;9.198;2022-12-07T01:18:57;8.90;;;6.93;;
8594;SDS011;4335;48.860;9.198;2022-12-07T01:21:26;8.50;;;7.07;;
8594;SDS011;4335;48.860;9.198;2022-12-07T01:23:59;8.70;;;7.43;;
8594;SDS011;4335;48.860;9.198;2022-12-07T01:26:27;8.80;;;7.23;;
8594;SDS011;4335;48.860;9.198;2022-12-07T01:28:54;10.20;;;7.63;;
8594;SDS011;4335;48.860;9.198;2022-12-07T01:31:24;8.90;;;6.27;;
8594;SDS011;4335;48.860;9.198;2022-12-07T01:33:53;9.20;;;7.30;;
8594;SDS011;4335;48.860;9.198;2022-12-07T01:36:26;10.43;;;6.93;;
8594;SDS011;4335;48.860;9.198;2022-12-07T01:38:57;9.80;;;6.30;;
8594;SDS011;4335;48.860;9.198;2022-12-07T01:41:26;8.77;;;7.33;;
8594;SDS011;4335;48.860;9.198;2022-12-07T01:46:46;7.60;;;6.80;;
8594;SDS011;4335;48.860;9.198;2022-12-07T01:49:24;8.47;;;6.87;;
8594;SDS011;4335;48.860;9.198;2022-12-07T01:51:58;10.33;;;7.27;;
8594;SDS011;4335;48.860;9.198;2022-12-07T01:54:33;8.57;;;7.20;;
8594;SDS011;4335;48.860;9.198;2022-12-07T01:57:02;9.93;;;7.23;;
8594;SDS011;4335;48.860;9.198;2022-12-07T01:59:39;8.50;;;6.73;;
8594;SDS011;4335;48.860;9.198;2022-12-07T02:02:09;8.60;;;6.93;;
8594;SDS011;4335;48.860;9.198;2022-12-07T02:04:40;9.10;;;7.60;;
8594;SDS011;4335;48.860;9.198;2022-12-07T02:07:10;8.43;;;7.07;;
8594;SDS011;4335;48.860;9.198;2022-12-07T02:09:38;12.53;;;7.53;;
8594;SDS011;4335;48.860;9.198;2022-12-07T02:12:05;10.13;;;7.43;;
8594;SDS011;4335;48.860;9.198;2022-12-07T02:14:32;9.03;;;6.90;;
8594;SDS011;4335;48.860;9.198;2022-12-07T02:17:03;8.03;;;6.67;;
8594;SDS011;4335;48.860;9.198;2022-12-07T02:20:00;9.87;;;7.27;;
8594;SDS011;4335;48.860;9.198;2022-12-07T02:25:56;8.23;;;6.80;;
8594;SDS011;4335;48.860;9.198;2022-12-07T02:28:35;7.97;;;7.03;;
8594;SDS011;4335;48.860;9.198;2022-12-07T02:31:08;9.27;;;7.20;;
8594;SDS011;4335;48.860;9.198;2022-12-07T02:33:44;9.03;;;6.87;;
8594;SDS011;4335;48.860;9.198;2022-12-07T02:36:18;8.33;;;6.20;;
8594;SDS011;4335;48.860;9.198;2022-12-07T02:38:55;8.00;;;6.50;;
8594;SDS011;4335;48.860;9.198;2022-12-07T02:41:27;8.37;;;7.00;;
8594;SDS011;4335;48.860;9.198;2022-12-07T02:43:58;9.33;;;7.60;;
8594;SDS011;4335;48.860;9.198;2022-12-07T02:46:30;8.13;;;6.47;;
8594;SDS011;4335;48.860;9.198;2022-12-07T02:49:00;8.50;;;7.10;;
8594;SDS011;4335;48.860;9.198;2022-12-07T02:51:29;8.37;;;6.80;;
8594;SDS011;4335;48.860;9.198;2022-12-07T02:53:58;8.77;;;6.93;;
8594;SDS011;4335;48.860;9.198;2022-12-07T02:56:27;10.67;;;7.10;;
8594;SDS011;4335;48.860;9.198;2022-12-07T02:59:12;8.60;;;7.03;;
8594;SDS011;4335;48.860;9.198;2022-12-07T03:01:50;9.47;;;6.50;;
8594;SDS011;4335;48.860;9.198;2022-12-07T03:04:43;8.63;;;7.10;;
8594;SDS011;4335;48.860;9.198;2022-12-07T03:07:28;7.80;;;6.97;;
8594;SDS011;4335;48.860;9.198;2022-12-07T03:10:03;6.97;;;6.27;;
8594;SDS011;4335;48.860;9.198;2022-12-07T03:12:39;10.17;;;7.27;;
8594;SDS011;4335;48.860;9.198;2022-12-07T03:15:12;9.57;;;6.97;;
8594;SDS011;4335;48.860;9.198;2022-12-07T03:17:44;7.90;;;6.43;;
8594;SDS011;4335;48.860;9.198;2022-12-07T03:20:16;7.47;;;6.63;;
8594;SDS011;4335;48.860;9.198;2022-12-07T03:22:47;8.50;;;6.67;;
8594;SDS011;4335;48.860;9.198;2022-12-07T03:25:16;9.77;;;7.40;;
8594;SDS011;4335;48.860;9.198;2022-12-07T03:27:44;8.73;;;6.97;;
8594;SDS011;4335;48.860;9.198;2022-12-07T03:30:17;8.83;;;6.37;;
8594;SDS011;4335;48.860;9.198;2022-12-07T03:32:53;11.00;;;6.73;;
8594;SDS011;4335;48.860;9.198;2022-12-07T03:35:27;7.40;;;6.67;;
8594;SDS011;4335;48.860;9.198;2022-12-07T03:37:59;9.87;;;7.00;;
8594;SDS011;4335;48.860;9.198;2022-12-07T03:40:40;9.30;;;6.67;;
8594;SDS011;4335;48.860;9.198;2022-12-07T03:43:14;8.83;;;7.20;;
8594;SDS011;4335;48.860;9.198;2022-12-07T03:45:42;8.37;;;6.20;;
8594;SDS011;4335;48.860;9.198;2022-12-07T03:48:17;10.73;;;7.50;;
8594;SDS011;4335;48.860;9.198;2022-12-07T03:51:01;8.17;;;6.40;;
8594;SDS011;4335;48.860;9.198;2022-12-07T03:53:37;7.80;;;6.63;;
8594;SDS011;4335;48.860;9.198;2022-12-07T03:56:08;9.07;;;6.90;;
8594;SDS011;4335;48.860;9.198;2022-12-07T03:58:36;8.77;;;6.97;;
8594;SDS011;4335;48.860;9.198;2022-12-07T04:01:04;8.30;;;6.40;;
8594;SDS011;4335;48.860;9.198;2022-12-07T04:03:33;11.10;;;6.83;;
8594;SDS011;4335;48.860;9.198;2022-12-07T04:06:01;12.03;;;7.57;;
8594;SDS011;4335;48.860;9.198;2022-12-07T04:08:31;9.57;;;7.67;;
8594;SDS011;4335;48.860;9.198;2022-12-07T04:11:02;8.60;;;6.77;;
8594;SDS011;4335;48.860;9.198;2022-12-07T04:13:29;10.10;;;7.57;;
8594;SDS011;4335;48.860;9.198;2022-12-07T04:16:17;8.70;;;7.23;;
8594;SDS011;4335;48.860;9.198;2022-12-07T04:18:46;11.83;;;7.07;;
8594;SDS011;4335;48.860;9.198;2022-12-07T04:21:13;10.77;;;7.43;;
8594;SDS011;4335;48.860;9.198;2022-12-07T04:23:41;10.07;;;7.70;;
8594;SDS011;4335;48.860;9.198;2022-12-07T04:26:08;10.57;;;7.70;;
8594;SDS011;4335;48.860;9.198;2022-12-07T04:28:36;9.47;;;7.67;;
8594;SDS011;4335;48.860;9.198;2022-12-07T04:31:03;10.23;;;6.77;;
8594;SDS011;4335;48.860;9.198;2022-12-07T04:33:37;8.80;;;7.70;;
8594;SDS011;4335;48.860;9.198;2022-12-07T04:36:06;7.67;;;6.67;;
8594;SDS011;4335;48.860;9.198;2022-12-07T04:38:34;9.90;;;7.13;;
8594;SDS011;4335;48.860;9.198;2022-12-07T04:41:07;9.93;;;7.27;;
8594;SDS011;4335;48.860;9.198;2022-12-07T04:43:36;7.93;;;6.83;;
8594;SDS011;4335;48.860;9.198;2022-12-07T04:46:03;8.83;;;6.63;;
8594;SDS011;4335;48.860;9.198;2022-12-07T04:48:31;10.33;;;7.37;;
8594;SDS011;4335;48.860;9.198;2022-12-07T04:50:58;8.17;;;6.77;;
8594;SDS011;4335;48.860;9.198;2022-12-07T04:53:27;7.83;;;6.90;;
8594;SDS011;4335;48.860;9.198;2022-12-07T04:55:57;10.30;;;7.27;;
8594;SDS011;4335;48.860;9.198;2022-12-07T04:58:26;9.30;;;7.00;;
8594;SDS011;4335;48.860;9.198;2022-12-07T05:00:56;10.30;;;6.57;;
8594;SDS011;4335;48.860;9.198;2022-12-07T05:03:23;13.40;;;8.77;;
8594;SDS011;4335;48.860;9.198;2022-12-07T05:05:50;10.93;;;8.07;;
8594;SDS011;4335;48.860;9.198;2022-12-07T05:08:20;11.40;;;7.60;;
8594;SDS011;4335;48.860;9.198;2022-12-07T05:10:49;9.00;;;6.73;;
8594;SDS011;4335;48.860;9.198;2022-12-07T05:13:20;9.10;;;7.57;;
8594;SDS011;4335;48.860;9.198;2022-12-07T05:15:47;9.43;;;7.50;;
8594;SDS011;4335;48.860;9.198;2022-12-07T05:18:15;10.27;;;7.33;;
8594;SDS011;4335;48.860;9.198;2022-12-07T05:20:43;10.03;;;7.50;;
8594;SDS011;4335;48.860;9.198;2022-12-07T05:23:11;9.40;;;7.77;;
8594;SDS011;4335;48.860;9.198;2022-12-07T05:25:48;11.93;;;7.67;;
8594;SDS011;4335;48.860;9.198;2022-12-07T05:28:16;9.20;;;7.23;;
8594;SDS011;4335;48.860;9.198;2022-12-07T05:30:47;8.90;;;7.77;;
8594;SDS011;4335;48.860;9.198;2022-12-07T05:33:14;14.10;;;6.43;;
8594;SDS011;4335;48.860;9.198;2022-12-07T05:35:41;11.17;;;8.30;;
8594;SDS011;4335;48.860;9.198;2022-12-07T05:38:09;9.27;;;7.17;;
8594;SDS011;4335;48.860;9.198;2022-12-07T05:40:36;10.30;;;7.97;;
8594;SDS011;4335;48.860;9.198;2022-12-07T05:43:05;10.10;;;8.20;;
8594;SDS011;4335;48.860;9.198;2022-12-07T05:45:32;9.97;;;7.83;;
8594;SDS011;4335;48.860;9.198;2022-12-07T05:48:00;17.20;;;10.87;;
8594;SDS011;4335;48.860;9.198;2022-12-07T05:50:27;16.17;;;10.30;;
8594;SDS011;4335;48.860;9.198;2022-12-07T05:52:54;12.13;;;9.33;;
8594;SDS011;4335;48.860;9.198;2022-12-07T05:55:22;12.03;;;9.47;;
8594;SDS011;4335;48.860;9.198;2022-12-07T05:57:49;11.13;;;9.13;;
8594;SDS011;4335;48.860;9.198;2022-12-07T06:00:32;11.10;;;8.13;;
8594;SDS011;4335;48.860;9.198;2022-12-07T06:02:59;11.77;;;7.90;;
8594;SDS011;4335;48.860;9.198;2022-12-07T06:05:29;10.77;;;8.37;;
8594;SDS011;4335;48.860;9.198;2022-12-07T06:08:00;11.40;;;8.30;;
8594;SDS011;4335;48.860;9.198;2022-12-07T06:10:30;10.27;;;8.20;;
8594;SDS011;4335;48.860;9.198;2022-12-07T06:12:58;10.47;;;8.17;;
8594;SDS011;4335;48.860;9.198;2022-12-07T06:15:29;11.30;;;8.40;;
8594;SDS011;4335;48.860;9.198;2022-12-07T06:18:01;10.23;;;7.33;;
8594;SDS011;4335;48.860;9.198;2022-12-07T06:20:29;10.10;;;7.37;;
8594;SDS011;4335;48.860;9.198;2022-12-07T06:22:59;8.17;;;6.17;;
8594;SDS011;4335;48.860;9.198;2022-12-07T06:25:27;7.87;;;7.03;;
8594;SDS011;4335;48.860;9.198;2022-12-07T06:27:54;9.17;;;6.80;;
8594;SDS011;4335;48.860;9.198;2022-12-07T06:30:22;7.03;;;6.27;;
8594;SDS011;4335;48.860;9.198;2022-12-07T06:32:54;9.93;;;7.37;;
8594;SDS011;4335;48.860;9.198;2022-12-07T06:35:22;30.70;;;23.57;;
8594;SDS011;4335;48.860;9.198;2022-12-07T06:37:50;13.87;;;10.77;;
8594;SDS011;4335;48.860;9.198;2022-12-07T06:40:20;10.40;;;8.00;;
8594;SDS011;4335;48.860;9.198;2022-12-07T06:42:50;8.40;;;6.47;;
8594;SDS011;4335;48.860;9.198;2022-12-07T06:45:18;10.93;;;7.30;;
8594;SDS011;4335;48.860;9.198;2022-12-07T06:47:46;8.03;;;6.20;;
8594;SDS011;4335;48.860;9.198;2022-12-07T06:50:18;9.37;;;6.53;;
8594;SDS011;4335;48.860;9.198;2022-12-07T06:52:51;7.50;;;6.67;;
8594;SDS011;4335;48.860;9.198;2022-12-07T06:55:19;9.27;;;6.40;;
8594;SDS011;4335;48.860;9.198;2022-12-07T06:57:46;8.63;;;6.20;;
8594;SDS011;4335;48.860;9.198;2022-12-07T07:00:23;9.20;;;6.90;;
8594;SDS011;4335;48.860;9.198;2022-12-07T07:02:50;9.57;;;6.50;;
8594;SDS011;4335;48.860;9.198;2022-12-07T07:05:22;8.17;;;5.83;;
8594;SDS011;4335;48.860;9.198;2022-12-07T07:07:49;6.97;;;6.00;;
8594;SDS011;4335;48.860;9.198;2022-12-07T07:10:17;6.43;;;5.47;;
8594;SDS011;4335;48.860;9.198;2022-12-07T07:12:45;7.37;;;4.73;;
8594;SDS011;4335;48.860;9.198;2022-12-07T07:15:15;6.87;;;5.77;;
8594;SDS011;4335;48.860;9.198;2022-12-07T07:17:43;6.50;;;4.53;;
8594;SDS011;4335;48.860;9.198;2022-12-07T07:20:11;7.63;;;5.70;;
8594;SDS011;4335;48.860;9.198;2022-12-07T07:22:40;9.27;;;5.90;;
8594;SDS011;4335;48.860;9.198;2022-12-07T07:25:08;7.60;;;5.20;;
8594;SDS011;4335;48.860;9.198;2022-12-07T07:27:35;8.40;;;5.30;;
8594;SDS011;4335;48.860;9.198;2022-12-07T07:30:03;7.27;;;4.90;;
8594;SDS011;4335;48.860;9.198;2022-12-07T07:32:32;7.10;;;6.38;;
8594;SDS011;4335;48.860;9.198;2022-12-07T07:34:59;9.00;;;5.83;;
8594;SDS011;4335;48.860;9.198;2022-12-07T07:37:27;9.27;;;5.37;;
8594;SDS011;4335;48.860;9.198;2022-12-07T07:40:01;7.27;;;5.73;;
8594;SDS011;4335;48.860;9.198;2022-12-07T07:42:29;6.70;;;5.70;;
8594;SDS011;4335;48.860;9.198;2022-12-07T07:44:59;8.63;;;5.67;;
8594;SDS011;4335;48.860;9.198;2022-12-07T07:47:26;6.73;;;5.00;;
8594;SDS011;4335;48.860;9.198;2022-12-07T07:49:57;5.63;;;4.97;;
8594;SDS011;4335;48.860;9.198;2022-12-07T07:52:25;6.13;;;5.03;;
8594;SDS011;4335;48.860;9.198;2022-12-07T07:54:52;6.03;;;4.90;;
8594;SDS011;4335;48.860;9.198;2022-12-07T07:57:26;6.53;;;5.10;;
8594;SDS011;4335;48.860;9.198;2022-12-07T07:59:56;7.70;;;5.17;;
8594;SDS011;4335;48.860;9.198;2022-12-07T08:02:23;8.30;;;5.13;;
8594;SDS011;4335;48.860;9.198;2022-12-07T08:04:51;6.23;;;5.23;;
8594;SDS011;4335;48.860;9.198;2022-12-07T08:07:18;6.83;;;5.67;;
8594;SDS011;4335;48.860;9.198;2022-12-07T08:09:48;5.73;;;5.10;;
8594;SDS011;4335;48.860;9.198;2022-12-07T08:12:16;6.93;;;4.90;;
8594;SDS011;4335;48.860;9.198;2022-12-07T08:14:44;7.10;;;5.23;;
8594;SDS011;4335;48.860;9.198;2022-12-07T08:17:12;6.10;;;4.83;;
8594;SDS011;4335;48.860;9.198;2022-12-07T08:19:39;7.00;;;4.37;;
8594;SDS011;4335;48.860;9.198;2022-12-07T08:22:07;8.07;;;6.20;;
8594;SDS011;4335;48.860;9.198;2022-12-07T08:24:34;6.10;;;5.10;;
8594;SDS011;4335;48.860;9.198;2022-12-07T08:27:02;8.30;;;4.90;;
8594;SDS011;4335;48.860;9.198;2022-12-07T08:29:32;7.77;;;5.13;;
8594;SDS011;4335;48.860;9.198;2022-12-07T08:32:01;5.80;;;4.67;;
8594;SDS011;4335;48.860;9.198;2022-12-07T08:34:29;6.57;;;5.23;;
8594;SDS011;4335;48.860;9.198;2022-12-07T08:36:59;5.67;;;4.80;;
8594;SDS011;4335;48.860;9.198;2022-12-07T08:39:27;7.23;;;5.03;;
8594;SDS011;4335;48.860;9.198;2022-12-07T08:42:00;7.53;;;4.70;;
8594;SDS011;4335;48.860;9.198;2022-12-07T08:44:27;11.80;;;7.43;;
8594;SDS011;4335;48.860;9.198;2022-12-07T08:46:56;9.07;;;5.40;;
8594;SDS011;4335;48.860;9.198;2022-12-07T08:49:30;6.30;;;5.23;;
8594;SDS011;4335;48.860;9.198;2022-12-07T08:52:02;6.87;;;4.60;;
8594;SDS011;4335;48.860;9.198;2022-12-07T08:54:35;6.70;;;5.10;;
8594;SDS011;4335;48.860;9.198;2022-12-07T08:57:11;6.20;;;4.93;;
8594;SDS011;4335;48.860;9.198;2022-12-07T08:59:38;7.63;;;5.33;;
8594;SDS011;4335;48.860;9.198;2022-12-07T09:02:07;7.53;;;4.83;;
8594;SDS011;4335;48.860;9.198;2022-12-07T09:04:37;6.97;;;5.10;;
8594;SDS011;4335;48.860;9.198;2022-12-07T09:07:05;7.80;;;4.73;;
8594;SDS011;4335;48.860;9.198;2022-12-07T09:09:35;7.03;;;5.57;;
8594;SDS011;4335;48.860;9.198;2022-12-07T09:12:02;7.60;;;5.93;;
8594;SDS011;4335;48.860;9.198;2022-12-07T09:14:30;7.23;;;5.70;;
8594;SDS011;4335;48.860;9.198;2022-12-07T09:17:04;7.00;;;4.50;;
8594;SDS011;4335;48.860;9.198;2022-12-07T09:19:34;6.07;;;4.87;;
8594;SDS011;4335;48.860;9.198;2022-12-07T09:22:02;7.37;;;4.57;;
8594;SDS011;4335;48.860;9.198;2022-12-07T09:24:29;8.33;;;5.60;;
8594;SDS011;4335;48.860;9.198;2022-12-07T09:27:00;6.80;;;4.53;;
8594;SDS011;4335;48.860;9.198;2022-12-07T09:29:27;11.60;;;6.73;;
8594;SDS011;4335;48.860;9.198;2022-12-07T09:31:55;6.73;;;4.93;;
8594;SDS011;4335;48.860;9.198;2022-12-07T09:34:24;6.23;;;4.70;;
8594;SDS011;4335;48.860;9.198;2022-12-07T09:36:51;8.63;;;4.50;;
8594;SDS011;4335;48.860;9.198;2022-12-07T09:39:19;5.67;;;4.40;;
8594;SDS011;4335;48.860;9.198;2022-12-07T09:41:46;6.00;;;4.10;;
8594;SDS011;4335;48.860;9.198;2022-12-07T09:44:14;5.03;;;3.97;;
8594;SDS011;4335;48.860;9.198;2022-12-07T09:46:47;3.80;;;3.30;;
8594;SDS011;4335;48.860;9.198;2022-12-07T09:49:18;6.63;;;4.43;;
8594;SDS011;4335;48.860;9.198;2022-12-07T09:52:02;5.13;;;3.90;;
8594;SDS011;4335;48.860;9.198;2022-12-07T09:54:46;5.90;;;4.47;;
8594;SDS011;4335;48.860;9.198;2022-12-07T09:57:15;5.33;;;4.07;;
8594;SDS011;4335;48.860;9.198;2022-12-07T09:59:43;4.17;;;3.63;;
8594;SDS011;4335;48.860;9.198;2022-12-07T10:02:23;6.13;;;3.67;;
8594;SDS011;4335;48.860;9.198;2022-12-07T10:05:00;8.30;;;5.00;;
8594;SDS011;4335;48.860;9.198;2022-12-07T10:07:33;4.93;;;4.07;;
8594;SDS011;4335;48.860;9.198;2022-12-07T10:10:02;5.23;;;4.33;;
8594;SDS011;4335;48.860;9.198;2022-12-07T10:12:42;5.63;;;4.30;;
8594;SDS011;4335;48.860;9.198;2022-12-07T10:15:20;6.73;;;5.20;;
8594;SDS011;4335;48.860;9.198;2022-12-07T10:17:48;8.20;;;4.50;;
8594;SDS011;4335;48.860;9.198;2022-12-07T10:20:21;6.30;;;4.50;;
8594;SDS011;4335;48.860;9.198;2022-12-07T10:23:03;6.27;;;4.13;;
8594;SDS011;4335;48.860;9.198;2022-12-07T10:25:32;9.03;;;4.80;;
8594;SDS011;4335;48.860;9.198;2022-12-07T10:28:02;6.03;;;3.97;;
8594;SDS011;4335;48.860;9.198;2022-12-07T10:30:52;7.27;;;6.33;;
8594;SDS011;4335;48.860;9.198;2022-12-07T10:33:28;5.90;;;4.37;;
8594;SDS011;4335;48.860;9.198;2022-12-07T10:35:57;5.17;;;4.60;;
8594;SDS011;4335;48.860;9.198;2022-12-07T10:38:30;7.93;;;4.97;;
8594;SDS011;4335;48.860;9.198;2022-12-07T10:41:04;6.80;;;4.57;;
8594;SDS011;4335;48.860;9.198;2022-12-07T10:43:34;9.67;;;6.30;;
8594;SDS011;4335;48.860;9.198;2022-12-07T10:46:13;6.47;;;4.30;;
8594;SDS011;4335;48.860;9.198;2022-12-07T10:49:21;5.10;;;3.63;;
8594;SDS011;4335;48.860;9.198;2022-12-07T10:52:21;4.90;;;3.27;;
8594;SDS011;4335;48.860;9.198;2022-12-07T10:55:04;4.33;;;3.23;;
8594;SDS011;4335;48.860;9.198;2022-12-07T10:57:55;4.27;;;3.57;;
8594;SDS011;4335;48.860;9.198;2022-12-07T11:00:43;6.27;;;4.00;;
8594;SDS011;4335;48.860;9.198;2022-12-07T11:03:24;4.60;;;3.50;;
8594;SDS011;4335;48.860;9.198;2022-12-07T11:06:03;5.57;;;3.70;;
8594;SDS011;4335;48.860;9.198;2022-12-07T11:08:51;5.53;;;3.53;;
8594;SDS011;4335;48.860;9.198;2022-12-07T11:11:30;5.20;;;3.70;;
8594;SDS011;4335;48.860;9.198;2022-12-07T11:14:10;4.67;;;3.47;;
8594;SDS011;4335;48.860;9.198;2022-12-07T11:16:56;6.00;;;4.10;;
8594;SDS011;4335;48.860;9.198;2022-12-07T11:19:46;4.40;;;3.60;;
8594;SDS011;4335;48.860;9.198;2022-12-07T11:22:26;6.13;;;3.87;;
8594;SDS011;4335;48.860;9.198;2022-12-07T11:25:01;5.53;;;4.03;;
8594;SDS011;4335;48.860;9.198;2022-12-07T11:27:43;4.37;;;3.77;;
8594;SDS011;4335;48.860;9.198;2022-12-07T11:30:30;4.70;;;3.93;;
8594;SDS011;4335;48.860;9.198;2022-12-07T11:33:09;5.33;;;4.30;;
8594;SDS011;4335;48.860;9.198;2022-12-07T11:35:49;5.60;;;4.27;;
8594;SDS011;4335;48.860;9.198;2022-12-07T11:38:33;6.33;;;4.50;;
8594;SDS011;4335;48.860;9.198;2022-12-07T11:41:09;8.00;;;5.60;;
8594;SDS011;4335;48.860;9.198;2022-12-07T11:43:49;6.97;;;5.00;;
8594;SDS011;4335;48.860;9.198;2022-12-07T11:46:22;6.07;;;5.07;;
8594;SDS011;4335;48.860;9.198;2022-12-07T11:48:58;6.27;;;5.10;;
8594;SDS011;4335;48.860;9.198;2022-12-07T11:51:34;7.80;;;4.73;;
8594;SDS011;4335;48.860;9.198;2022-12-07T11:54:05;9.00;;;6.17;;
8594;SDS011;4335;48.860;9.198;2022-12-07T11:56:41;7.63;;;5.67;;
8594;SDS011;4335;48.860;9.198;2022-12-07T11:59:11;7.47;;;5.67;;
8594;SDS011;4335;48.860;9.198;2022-12-07T12:01:45;6.43;;;5.40;;
8594;SDS011;4335;48.860;9.198;2022-12-07T12:04:23;9.10;;;5.77;;
8594;SDS011;4335;48.860;9.198;2022-12-07T12:06:57;7.63;;;5.73;;
8594;SDS011;4335;48.860;9.198;2022-12-07T12:09:30;9.87;;;5.97;;
8594;SDS011;4335;48.860;9.198;2022-12-07T12:15:13;8.40;;;6.60;;
8594;SDS011;4335;48.860;9.198;2022-12-07T12:17:56;9.77;;;5.80;;
8594;SDS011;4335;48.860;9.198;2022-12-07T12:20:35;5.73;;;4.90;;
8594;SDS011;4335;48.860;9.198;2022-12-07T12:23:12;6.30;;;5.17;;
8594;SDS011;4335;48.860;9.198;2022-12-07T12:25:43;7.00;;;5.50;;
8594;SDS011;4335;48.860;9.198;2022-12-07T12:28:22;6.27;;;4.50;;
8594;SDS011;4335;48.860;9.198;2022-12-07T12:33:43;6.57;;;5.60;;
8594;SDS011;4335;48.860;9.198;2022-12-07T12:39:11;6.97;;;5.10;;
8594;SDS011;4335;48.860;9.198;2022-12-07T12:41:57;5.83;;;5.20;;
8594;SDS011;4335;48.860;9.198;2022-12-07T12:50:59;7.27;;;5.33;;
8594;SDS011;4335;48.860;9.198;2022-12-07T12:54:04;8.07;;;6.27;;
8594;SDS011;4335;48.860;9.198;2022-12-07T12:56:43;6.60;;;5.90;;
8594;SDS011;4335;48.860;9.198;2022-12-07T12:59:22;7.53;;;5.93;;
8594;SDS011;4335;48.860;9.198;2022-12-07T13:01:55;8.43;;;6.43;;
8594;SDS011;4335;48.860;9.198;2022-12-07T13:04:39;7.53;;;6.13;;
8594;SDS011;4335;48.860;9.198;2022-12-07T13:10:21;8.13;;;5.93;;
8594;SDS011;4335;48.860;9.198;2022-12-07T13:25:46;9.73;;;6.83;;
8594;SDS011;4335;48.860;9.198;2022-12-07T13:28:21;7.77;;;6.37;;
8594;SDS011;4335;48.860;9.198;2022-12-07T13:30:58;8.00;;;6.70;;
8594;SDS011;4335;48.860;9.198;2022-12-07T13:33:32;9.03;;;7.10;;
8594;SDS011;4335;48.860;9.198;2022-12-07T13:36:02;8.83;;;6.63;;
8594;SDS011;4335;48.860;9.198;2022-12-07T13:38:39;9.17;;;7.20;;
8594;SDS011;4335;48.860;9.198;2022-12-07T13:41:20;11.43;;;7.47;;
8594;SDS011;4335;48.860;9.198;2022-12-07T13:43:58;8.90;;;6.97;;
8594;SDS011;4335;48.860;9.198;2022-12-07T13:46:32;10.10;;;8.07;;
8594;SDS011;4335;48.860;9.198;2022-12-07T13:49:15;10.37;;;7.90;;
8594;SDS011;4335;48.860;9.198;2022-12-07T13:51:46;11.13;;;8.10;;
8594;SDS011;4335;48.860;9.198;2022-12-07T13:54:17;11.87;;;8.30;;
8594;SDS011;4335;48.860;9.198;2022-12-07T13:56:53;12.27;;;8.63;;
8594;SDS011;4335;48.860;9.198;2022-12-07T13:59:21;8.87;;;7.97;;
8594;SDS011;4335;48.860;9.198;2022-12-07T14:01:53;10.10;;;7.00;;
8594;SDS011;4335;48.860;9.198;2022-12-07T14:07:18;12.37;;;6.90;;
8594;SDS011;4335;48.860;9.198;2022-12-07T14:09:54;8.23;;;6.93;;
8594;SDS011;4335;48.860;9.198;2022-12-07T14:12:28;11.87;;;8.73;;
8594;SDS011;4335;48.860;9.198;2022-12-07T14:15:03;11.10;;;8.30;;
8594;SDS011;4335;48.860;9.198;2022-12-07T14:17:31;9.30;;;7.20;;
8594;SDS011;4335;48.860;9.198;2022-12-07T14:19:58;11.13;;;8.03;;
8594;SDS011;4335;48.860;9.198;2022-12-07T14:22:27;11.53;;;8.30;;
8594;SDS011;4335;48.860;9.198;2022-12-07T14:25:00;10.73;;;8.00;;
8594;SDS011;4335;48.860;9.198;2022-12-07T14:27:51;9.17;;;7.17;;
8594;SDS011;4335;48.860;9.198;2022-12-07T14:30:23;15.40;;;8.33;;
8594;SDS011;4335;48.860;9.198;2022-12-07T14:32:53;11.87;;;8.37;;
8594;SDS011;4335;48.860;9.198;2022-12-07T14:35:23;11.43;;;8.10;;
8594;SDS011;4335;48.860;9.198;2022-12-07T14:37:51;11.47;;;7.67;;
8594;SDS011;4335;48.860;9.198;2022-12-07T14:40:22;12.70;;;8.27;;
8594;SDS011;4335;48.860;9.198;2022-12-07T14:42:57;9.80;;;7.77;;
8594;SDS011;4335;48.860;9.198;2022-12-07T14:45:28;11.53;;;8.60;;
8594;SDS011;4335;48.860;9.198;2022-12-07T14:48:03;13.23;;;8.13;;
8594;SDS011;4335;48.860;9.198;2022-12-07T14:50:31;11.27;;;8.37;;
8594;SDS011;4335;48.860;9.198;2022-12-07T14:56:24;11.20;;;8.40;;
8594;SDS011;4335;48.860;9.198;2022-12-07T14:58:56;15.13;;;8.03;;
8594;SDS011;4335;48.860;9.198;2022-12-07T15:01:35;11.73;;;8.00;;
8594;SDS011;4335;48.860;9.198;2022-12-07T15:04:03;11.03;;;7.87;;
8594;SDS011;4335;48.860;9.198;2022-12-07T15:06:33;10.87;;;7.47;;
8594;SDS011;4335;48.860;9.198;2022-12-07T15:09:06;8.77;;;6.37;;
8594;SDS011;4335;48.860;9.198;2022-12-07T15:11:35;9.63;;;7.13;;
8594;SDS011;4335;48.860;9.198;2022-12-07T15:14:09;10.60;;;7.40;;
8594;SDS011;4335;48.860;9.198;2022-12-07T15:16:41;9.27;;;7.00;;
8594;SDS011;4335;48.860;9.198;2022-12-07T15:19:12;10.60;;;7.43;;
8594;SDS011;4335;48.860;9.198;2022-12-07T15:21:43;12.00;;;8.27;;
8594;SDS011;4335;48.860;9.198;2022-12-07T15:24:11;14.50;;;8.57;;
8594;SDS011;4335;48.860;9.198;2022-12-07T15:26:39;10.30;;;7.77;;
8594;SDS011;4335;48.860;9.198;2022-12-07T15:29:09;10.90;;;7.40;;
8594;SDS011;4335;48.860;9.198;2022-12-07T15:31:52;14.50;;;9.40;;
8594;SDS011;4335;48.860;9.198;2022-12-07T15:34:22;12.77;;;8.40;;
8594;SDS011;4335;48.860;9.198;2022-12-07T15:36:53;13.33;;;7.87;;
8594;SDS011;4335;48.860;9.198;2022-12-07T15:39:23;10.37;;;8.40;;
8594;SDS011;4335;48.860;9.198;2022-12-07T15:41:57;11.97;;;8.03;;
8594;SDS011;4335;48.860;9.198;2022-12-07T15:44:23;12.07;;;8.17;;
8594;SDS011;4335;48.860;9.198;2022-12-07T15:47:17;12.07;;;8.20;;
8594;SDS011;4335;48.860;9.198;2022-12-07T15:49:46;12.00;;;8.27;;
8594;SDS011;4335;48.860;9.198;2022-12-07T15:52:16;14.27;;;8.30;;
8594;SDS011;4335;48.860;9.198;2022-12-07T15:54:44;10.57;;;8.47;;
8594;SDS011;4335;48.860;9.198;2022-12-07T15:57:16;12.43;;;8.73;;
8594;SDS011;4335;48.860;9.198;2022-12-07T15:59:43;14.93;;;11.13;;
8594;SDS011;4335;48.860;9.198;2022-12-07T16:02:12;17.73;;;11.37;;
8594;SDS011;4335;48.860;9.198;2022-12-07T16:04:39;14.67;;;10.00;;
8594;SDS011;4335;48.860;9.198;2022-12-07T16:07:11;14.13;;;9.23;;
8594;SDS011;4335;48.860;9.198;2022-12-07T16:09:45;15.77;;;9.43;;
8594;SDS011;4335;48.860;9.198;2022-12-07T16:12:12;15.03;;;8.97;;
8594;SDS011;4335;48.860;9.198;2022-12-07T16:14:40;11.70;;;8.37;;
8594;SDS011;4335;48.860;9.198;2022-12-07T16:17:08;12.60;;;8.77;;
8594;SDS011;4335;48.860;9.198;2022-12-07T16:19:35;13.10;;;8.77;;
8594;SDS011;4335;48.860;9.198;2022-12-07T16:22:02;13.97;;;9.43;;
8594;SDS011;4335;48.860;9.198;2022-12-07T16:24:30;14.30;;;9.00;;